createdAt,value
2023-05-14T00:02:00.714Z,4.05
2023-05-14T00:04:46.167Z,5.63
2023-05-14T00:07:31.665Z,4.95
2023-05-14T00:10:19.060Z,5.93
2023-05-14T00:13:04.503Z,5.72
2023-05-14T00:15:49.869Z,5.20
2023-05-14T00:18:35.448Z,6.20
2023-05-14T00:21:20.595Z,4.90
2023-05-14T00:24:06.133Z,6.90
2023-05-14T00:26:51.536Z,5.72
2023-05-14T00:29:36.781Z,5.80
2023-05-14T00:32:22.266Z,5.55
2023-05-14T00:35:07.712Z,5.95
2023-05-14T00:37:52.790Z,7.85
2023-05-14T00:40:38.212Z,8.88
2023-05-14T00:43:23.913Z,6.05
2023-05-14T00:46:09.477Z,5.72
2023-05-14T00:48:55.388Z,5.32
2023-05-14T00:51:41.536Z,5.18
2023-05-14T00:54:28.140Z,5.30
2023-05-14T00:57:13.677Z,6.00
2023-05-14T00:59:59.531Z,7.22
2023-05-14T01:02:44.662Z,5.43
2023-05-14T01:05:39.129Z,5.45
2023-05-14T01:08:32.797Z,5.35
2023-05-14T01:11:47.998Z,5.93
2023-05-14T01:14:36.053Z,7.03
2023-05-14T01:17:22.959Z,5.57
2023-05-14T01:20:09.067Z,4.70
2023-05-14T01:22:54.580Z,7.07
2023-05-14T01:25:39.843Z,5.63
2023-05-14T01:28:32.222Z,4.45
2023-05-14T01:31:20.239Z,4.68
2023-05-14T01:34:06.787Z,6.97
2023-05-14T01:36:53.371Z,5.82
2023-05-14T01:39:39.198Z,5.30
2023-05-14T01:42:25.051Z,4.82
2023-05-14T01:45:10.791Z,5.90
2023-05-14T01:47:56.665Z,5.30
2023-05-14T01:50:41.873Z,5.03
2023-05-14T01:53:27.396Z,6.47
2023-05-14T01:56:13.083Z,6.18
2023-05-14T01:58:58.321Z,5.75
2023-05-14T02:01:43.819Z,5.70
2023-05-14T02:04:29.155Z,6.28
2023-05-14T02:07:14.708Z,6.28
2023-05-14T02:09:59.927Z,5.90
2023-05-14T02:12:45.181Z,5.07
2023-05-14T02:15:30.807Z,6.35
2023-05-14T02:18:15.904Z,5.95
2023-05-14T02:21:01.323Z,4.82
2023-05-14T02:23:48.463Z,6.40
2023-05-14T02:26:33.740Z,7.40
2023-05-14T02:29:19.107Z,6.22
2023-05-14T02:32:04.895Z,6.70
2023-05-14T02:34:49.894Z,5.35
2023-05-14T02:37:35.341Z,6.30
2023-05-14T02:40:20.679Z,4.82
2023-05-14T02:43:06.107Z,6.93
2023-05-14T02:45:51.531Z,7.03
2023-05-14T02:48:36.903Z,7.47
2023-05-14T02:51:22.840Z,4.95
2023-05-14T02:54:08.155Z,5.03
2023-05-14T02:56:53.668Z,5.32
2023-05-14T02:59:39.018Z,6.20
2023-05-14T03:02:24.894Z,5.80
2023-05-14T03:05:10.755Z,5.97
2023-05-14T03:07:56.029Z,6.50
2023-05-14T03:10:41.435Z,9.27
2023-05-14T03:13:26.826Z,6.00
2023-05-14T03:16:12.111Z,6.05
2023-05-14T03:18:57.460Z,4.97
2023-05-14T03:21:42.976Z,7.28
2023-05-14T03:24:28.333Z,5.05
2023-05-14T03:27:13.781Z,5.00
2023-05-14T03:29:59.076Z,5.53
2023-05-14T03:32:45.625Z,5.55
2023-05-14T03:35:30.693Z,5.82
2023-05-14T03:38:16.264Z,5.30
2023-05-14T03:41:01.276Z,7.60
2023-05-14T03:43:46.804Z,5.45
2023-05-14T03:46:33.000Z,5.45
2023-05-14T03:49:18.173Z,5.82
2023-05-14T03:52:03.823Z,5.95
2023-05-14T03:54:49.142Z,5.88
2023-05-14T03:57:34.523Z,6.80
2023-05-14T04:00:20.117Z,7.20
2023-05-14T04:03:06.037Z,6.68
2023-05-14T04:05:51.949Z,7.68
2023-05-14T04:08:37.033Z,5.88
2023-05-14T04:11:22.494Z,5.88
2023-05-14T04:14:07.760Z,5.45
2023-05-14T04:16:53.100Z,6.85
2023-05-14T04:19:39.268Z,6.20
2023-05-14T04:22:24.697Z,8.77
2023-05-14T04:25:10.272Z,7.55
2023-05-14T04:27:55.459Z,9.20
2023-05-14T04:30:40.830Z,7.55
2023-05-14T04:33:26.134Z,7.35
2023-05-14T04:36:11.471Z,8.90
2023-05-14T04:38:57.060Z,7.53
2023-05-14T04:41:42.811Z,8.18
2023-05-14T04:44:28.010Z,6.13
2023-05-14T04:47:13.311Z,8.43
2023-05-14T04:49:58.624Z,9.65
2023-05-14T04:52:44.252Z,9.48
2023-05-14T04:55:29.590Z,7.93
2023-05-14T04:58:15.031Z,9.25
2023-05-14T05:01:01.625Z,12.77
2023-05-14T05:03:46.678Z,9.52
2023-05-14T05:06:32.346Z,8.93
2023-05-14T05:09:20.652Z,9.43
2023-05-14T05:12:06.652Z,9.10
2023-05-14T05:14:51.942Z,8.65
2023-05-14T05:17:37.343Z,8.65
2023-05-14T05:20:23.303Z,8.55
2023-05-14T05:23:08.718Z,7.25
2023-05-14T05:25:54.237Z,7.50
2023-05-14T05:28:39.579Z,9.00
2023-05-14T05:31:24.903Z,8.68
2023-05-14T05:34:10.384Z,8.43
2023-05-14T05:36:56.108Z,8.55
2023-05-14T05:39:41.678Z,6.97
2023-05-14T05:42:27.047Z,7.35
2023-05-14T05:45:12.321Z,9.15
2023-05-14T05:47:57.835Z,9.23
2023-05-14T05:50:44.732Z,6.35
2023-05-14T05:53:29.844Z,8.02
2023-05-14T05:56:15.187Z,9.02
2023-05-14T05:59:00.564Z,7.10
2023-05-14T06:01:46.154Z,8.05
2023-05-14T06:04:31.495Z,10.52
2023-05-14T06:07:16.855Z,8.38
2023-05-14T06:10:02.853Z,9.48
2023-05-14T06:12:48.181Z,8.18
2023-05-14T06:15:33.657Z,11.38
2023-05-14T06:18:19.023Z,22.08
2023-05-14T06:21:04.597Z,15.73
2023-05-14T06:23:50.098Z,13.35
2023-05-14T06:26:35.636Z,10.98
2023-05-14T06:29:21.218Z,7.80
2023-05-14T06:32:07.165Z,7.78
2023-05-14T06:34:52.725Z,7.93
2023-05-14T06:37:38.113Z,8.30
2023-05-14T06:40:23.564Z,7.03
2023-05-14T06:43:09.316Z,8.48
2023-05-14T06:45:54.739Z,7.78
2023-05-14T06:48:40.346Z,8.40
2023-05-14T06:51:25.833Z,7.13
2023-05-14T06:54:11.593Z,7.75
2023-05-14T06:56:57.412Z,6.72
2023-05-14T06:59:42.749Z,8.18
2023-05-14T07:02:28.179Z,8.25
2023-05-14T07:05:13.680Z,7.38
2023-05-14T07:07:59.012Z,7.65
2023-05-14T07:10:44.392Z,8.80
2023-05-14T07:13:29.893Z,7.32
2023-05-14T07:16:15.367Z,8.40
2023-05-14T07:19:00.696Z,7.35
2023-05-14T07:21:46.047Z,8.20
2023-05-14T07:24:31.418Z,8.32
2023-05-14T07:27:19.661Z,7.05
2023-05-14T07:30:05.351Z,6.65
2023-05-14T07:32:50.581Z,6.38
2023-05-14T07:35:36.262Z,6.35
2023-05-14T07:38:21.792Z,8.15
2023-05-14T07:41:07.818Z,6.55
2023-05-14T07:43:53.300Z,7.90
2023-05-14T07:46:38.715Z,5.55
2023-05-14T07:49:25.147Z,6.10
2023-05-14T07:52:10.613Z,7.88
2023-05-14T07:54:55.812Z,6.88
2023-05-14T07:57:41.245Z,7.72
2023-05-14T08:00:27.081Z,8.35
2023-05-14T08:03:13.361Z,7.18
2023-05-14T08:05:58.667Z,6.85
2023-05-14T08:08:44.100Z,7.43
2023-05-14T08:11:29.395Z,6.72
2023-05-14T08:14:14.754Z,8.00
2023-05-14T08:17:00.485Z,7.35
2023-05-14T08:19:46.792Z,6.45
2023-05-14T08:22:31.970Z,7.07
2023-05-14T08:25:17.403Z,6.32
2023-05-14T08:28:02.873Z,6.85
2023-05-14T08:30:48.273Z,6.07
2023-05-14T08:33:33.784Z,6.55
2023-05-14T08:36:19.086Z,6.55
2023-05-14T08:39:04.588Z,6.20
2023-05-14T08:41:49.906Z,7.00
2023-05-14T08:44:58.249Z,6.93
2023-05-14T08:47:50.553Z,7.75
2023-05-14T08:50:36.529Z,5.28
2023-05-14T08:53:22.070Z,5.45
2023-05-14T08:56:08.928Z,7.13
2023-05-14T08:58:54.528Z,4.68
2023-05-14T09:01:46.694Z,6.78
2023-05-14T09:04:32.837Z,8.63
2023-05-14T09:07:18.597Z,6.43
2023-05-14T09:10:04.477Z,5.38
2023-05-14T09:12:49.594Z,5.68
2023-05-14T09:15:37.334Z,5.07
2023-05-14T09:18:22.539Z,4.90
2023-05-14T09:21:08.504Z,5.47
2023-05-14T09:23:56.918Z,6.40
2023-05-14T09:26:42.624Z,5.57
2023-05-14T09:29:29.680Z,5.57
2023-05-14T09:32:15.262Z,8.10
2023-05-14T09:35:09.622Z,6.18
2023-05-14T09:37:55.604Z,5.95
2023-05-14T09:40:40.759Z,7.30
2023-05-14T09:43:26.216Z,7.75
2023-05-14T09:46:11.684Z,4.60
2023-05-14T09:48:57.271Z,4.90
2023-05-14T09:51:42.855Z,5.10
2023-05-14T09:54:28.459Z,7.82
2023-05-14T09:57:13.873Z,6.10
2023-05-14T09:59:59.231Z,7.68
2023-05-14T10:02:46.966Z,5.22
2023-05-14T10:05:36.363Z,6.55
2023-05-14T10:08:28.125Z,5.95
2023-05-14T10:11:20.660Z,5.43
2023-05-14T10:14:18.412Z,7.13
2023-05-14T10:17:05.933Z,4.95
2023-05-14T10:19:54.411Z,5.40
2023-05-14T10:22:39.866Z,5.30
2023-05-14T10:25:25.705Z,5.50
2023-05-14T10:28:11.624Z,6.20
2023-05-14T10:30:57.422Z,5.50
2023-05-14T10:33:50.770Z,5.75
2023-05-14T10:36:35.984Z,5.28
2023-05-14T10:39:21.626Z,4.70
2023-05-14T10:42:08.518Z,5.38
2023-05-14T10:45:08.749Z,4.88
2023-05-14T10:47:54.345Z,5.75
2023-05-14T10:50:39.634Z,5.00
2023-05-14T10:53:38.975Z,6.10
2023-05-14T10:56:24.563Z,4.80
2023-05-14T10:59:11.451Z,4.50
2023-05-14T11:01:59.596Z,4.90
2023-05-14T11:04:58.459Z,5.93
2023-05-14T11:07:46.383Z,3.72
2023-05-14T11:10:32.178Z,5.15
2023-05-14T11:13:19.679Z,7.03
2023-05-14T11:16:15.508Z,5.35
2023-05-14T11:19:06.846Z,7.18
2023-05-14T11:21:51.913Z,4.10
2023-05-14T11:24:37.460Z,4.07
2023-05-14T11:27:24.106Z,6.50
2023-05-14T11:30:17.234Z,4.45
2023-05-14T11:33:03.409Z,4.20
2023-05-14T11:35:48.977Z,6.82
2023-05-14T11:38:33.920Z,3.85
2023-05-14T11:41:21.617Z,3.85
2023-05-14T11:44:09.083Z,5.97
2023-05-14T11:46:58.213Z,6.40
2023-05-14T11:49:43.902Z,5.25
2023-05-14T11:52:29.353Z,4.68
2023-05-14T11:55:14.731Z,4.53
2023-05-14T11:58:00.860Z,5.03
2023-05-14T12:00:47.386Z,4.75
2023-05-14T12:03:33.212Z,4.20
2023-05-14T12:06:19.190Z,4.32
2023-05-14T12:09:05.771Z,4.53
2023-05-14T12:11:52.441Z,5.22
2023-05-14T12:14:42.655Z,4.93
2023-05-14T12:17:28.402Z,4.40
2023-05-14T12:20:14.039Z,3.95
2023-05-14T12:22:59.346Z,4.93
2023-05-14T12:25:51.673Z,4.10
2023-05-14T12:28:43.356Z,5.60
2023-05-14T12:31:32.676Z,5.85
2023-05-14T12:34:17.954Z,5.10
2023-05-14T12:37:04.886Z,4.32
2023-05-14T12:39:49.925Z,4.05
2023-05-14T12:42:35.682Z,6.78
2023-05-14T12:45:20.969Z,5.47
2023-05-14T12:48:06.910Z,4.40
2023-05-14T12:50:52.430Z,5.13
2023-05-14T12:53:37.615Z,5.35
2023-05-14T12:56:27.735Z,6.30
2023-05-14T12:59:13.191Z,4.78
2023-05-14T13:01:58.449Z,3.65
2023-05-14T13:04:43.964Z,4.38
2023-05-14T13:07:30.334Z,4.30
2023-05-14T13:10:17.455Z,4.43
2023-05-14T13:13:02.828Z,4.93
2023-05-14T13:15:48.574Z,6.50
2023-05-14T13:18:33.671Z,5.55
2023-05-14T13:21:19.206Z,5.70
2023-05-14T13:24:04.677Z,5.53
2023-05-14T13:26:50.034Z,5.28
2023-05-14T13:29:35.371Z,4.68
2023-05-14T13:32:20.664Z,4.93
2023-05-14T13:35:07.760Z,4.45
2023-05-14T13:37:52.924Z,5.15
2023-05-14T13:40:38.356Z,5.13
2023-05-14T13:43:23.994Z,5.03
2023-05-14T13:46:09.214Z,6.05
2023-05-14T13:48:54.829Z,4.28
2023-05-14T13:51:39.844Z,5.40
2023-05-14T13:54:25.515Z,5.00
2023-05-14T13:57:10.929Z,6.25
2023-05-14T13:59:56.341Z,5.50
2023-05-14T14:02:41.765Z,7.47
2023-05-14T14:05:28.516Z,4.05
2023-05-14T14:11:08.450Z,4.97
2023-05-14T14:13:54.315Z,3.17
2023-05-14T14:16:39.660Z,4.38
2023-05-14T14:19:24.994Z,3.60
2023-05-14T14:22:10.280Z,4.25
2023-05-14T14:24:59.101Z,2.67
2023-05-14T14:27:46.479Z,4.20
2023-05-14T14:30:33.089Z,3.50
2023-05-14T14:33:18.331Z,4.95
2023-05-14T14:36:04.091Z,3.78
2023-05-14T14:38:49.195Z,3.80
2023-05-14T14:41:34.801Z,2.75
2023-05-14T14:44:19.925Z,5.05
2023-05-14T14:47:06.045Z,4.13
2023-05-14T14:49:51.439Z,3.60
2023-05-14T14:52:36.960Z,5.53
2023-05-14T14:55:22.500Z,3.63
2023-05-14T14:58:08.371Z,5.45
2023-05-14T15:00:55.671Z,9.50
2023-05-14T15:03:41.118Z,3.78
2023-05-14T15:06:26.464Z,5.60
2023-05-14T15:09:11.968Z,5.25
2023-05-14T15:11:57.592Z,3.78
2023-05-14T15:14:42.670Z,5.95
2023-05-14T15:17:28.230Z,3.92
2023-05-14T15:20:13.879Z,5.43
2023-05-14T15:22:59.108Z,3.33
2023-05-14T15:25:44.688Z,4.63
2023-05-14T15:28:29.666Z,4.38
2023-05-14T15:31:15.591Z,5.28
2023-05-14T15:34:00.799Z,3.97
2023-05-14T15:36:46.218Z,3.45
2023-05-14T15:39:31.736Z,3.97
2023-05-14T15:42:16.845Z,4.50
2023-05-14T15:45:02.324Z,4.57
2023-05-14T15:47:47.675Z,4.00
2023-05-14T15:50:33.037Z,5.38
2023-05-14T15:53:18.458Z,5.30
2023-05-14T15:56:03.994Z,3.60
2023-05-14T15:58:49.776Z,3.80
2023-05-14T16:01:34.956Z,4.63
2023-05-14T16:04:20.416Z,4.85
2023-05-14T16:07:09.781Z,3.42
2023-05-14T16:09:55.453Z,3.83
2023-05-14T16:12:40.821Z,3.95
2023-05-14T16:15:26.155Z,4.53
2023-05-14T16:18:11.794Z,5.00
2023-05-14T16:20:57.245Z,4.68
2023-05-14T16:23:42.733Z,4.32
2023-05-14T16:26:28.380Z,4.95
2023-05-14T16:29:13.674Z,4.18
2023-05-14T16:31:59.258Z,5.20
2023-05-14T16:34:49.867Z,4.72
2023-05-14T16:37:35.834Z,5.20
2023-05-14T16:40:23.424Z,5.65
2023-05-14T16:43:08.852Z,5.03
2023-05-14T16:45:54.369Z,5.60
2023-05-14T16:48:39.967Z,4.07
2023-05-14T16:51:25.638Z,7.57
2023-05-14T16:54:10.894Z,5.57
2023-05-14T16:56:56.064Z,4.63
2023-05-14T16:59:41.337Z,5.57
2023-05-14T17:02:27.326Z,4.93
2023-05-14T17:05:12.828Z,7.40
2023-05-14T17:07:58.214Z,5.22
2023-05-14T17:10:43.693Z,5.50
2023-05-14T17:13:28.980Z,4.95
2023-05-14T17:16:14.534Z,4.57
2023-05-14T17:18:59.835Z,6.15
2023-05-14T17:21:45.262Z,6.40
2023-05-14T17:24:30.924Z,6.53
2023-05-14T17:27:16.792Z,4.63
2023-05-14T17:30:03.353Z,4.85
2023-05-14T17:32:50.834Z,5.88
2023-05-14T17:35:37.240Z,4.63
2023-05-14T17:38:22.723Z,4.50
2023-05-14T17:41:08.236Z,6.88
2023-05-14T17:43:53.650Z,5.82
2023-05-14T17:46:39.308Z,7.63
2023-05-14T17:49:24.670Z,4.72
2023-05-14T17:52:10.380Z,6.95
2023-05-14T17:54:55.822Z,5.55
2023-05-14T17:57:42.005Z,4.30
2023-05-14T18:00:27.453Z,4.75
2023-05-14T18:03:14.283Z,5.63
2023-05-14T18:05:59.641Z,5.05
2023-05-14T18:08:44.960Z,4.10
2023-05-14T18:11:33.815Z,6.93
2023-05-14T18:14:19.251Z,5.57
2023-05-14T18:17:05.234Z,5.82
2023-05-14T18:19:50.791Z,6.10
2023-05-14T18:22:36.144Z,7.07
2023-05-14T18:25:21.476Z,4.13
2023-05-14T18:28:07.109Z,4.82
2023-05-14T18:30:52.469Z,5.75
2023-05-14T18:33:37.889Z,7.35
2023-05-14T18:36:23.304Z,7.25
2023-05-14T18:39:09.098Z,5.65
2023-05-14T18:41:55.054Z,7.22
2023-05-14T18:44:44.104Z,5.18
2023-05-14T18:47:30.266Z,5.50
2023-05-14T18:50:15.699Z,6.50
2023-05-14T18:53:01.032Z,9.15
2023-05-14T18:55:46.854Z,4.47
2023-05-14T18:58:32.055Z,8.13
2023-05-14T19:01:17.462Z,11.80
2023-05-14T19:04:05.462Z,4.85
2023-05-14T19:06:51.137Z,7.10
2023-05-14T19:09:36.790Z,8.15
2023-05-14T19:12:22.015Z,5.53
2023-05-14T19:15:07.880Z,6.60
2023-05-14T19:17:54.151Z,7.03
2023-05-14T19:20:39.817Z,6.35
2023-05-14T19:23:25.308Z,7.57
2023-05-14T19:26:10.803Z,5.93
2023-05-14T19:28:58.577Z,6.90
2023-05-14T19:31:43.785Z,4.72
2023-05-14T19:34:29.081Z,4.88
2023-05-14T19:37:14.441Z,6.68
2023-05-14T19:40:00.189Z,5.43
2023-05-14T19:42:45.533Z,5.65
2023-05-14T19:45:30.951Z,5.35
2023-05-14T19:48:19.024Z,6.07
2023-05-14T19:51:04.353Z,5.47
2023-05-14T19:53:49.774Z,4.30
2023-05-14T19:56:35.273Z,4.25
2023-05-14T19:59:20.573Z,3.53
2023-05-14T20:02:06.202Z,4.90
2023-05-14T20:04:55.320Z,3.90
2023-05-14T20:07:40.624Z,4.90
2023-05-14T20:10:26.027Z,7.43
2023-05-14T20:13:11.672Z,3.97
2023-05-14T20:15:57.172Z,4.35
2023-05-14T20:18:43.460Z,4.30
2023-05-14T20:21:28.675Z,5.40
2023-05-14T20:24:14.128Z,5.28
2023-05-14T20:26:59.540Z,5.72
2023-05-14T20:29:46.632Z,4.78
2023-05-14T20:32:31.855Z,5.97
2023-05-14T20:35:17.357Z,3.90
2023-05-14T20:38:03.729Z,3.47
2023-05-14T20:40:49.267Z,3.78
2023-05-14T20:43:34.643Z,5.10
2023-05-14T20:46:20.211Z,4.82
2023-05-14T20:49:05.565Z,4.35
2023-05-14T20:51:51.039Z,4.00
2023-05-14T20:54:36.684Z,4.35
2023-05-14T20:57:22.505Z,3.63
2023-05-14T21:00:09.862Z,4.88
2023-05-14T21:02:56.254Z,3.97
2023-05-14T21:05:43.629Z,5.43
2023-05-14T21:08:29.589Z,3.80
2023-05-14T21:11:14.942Z,4.57
2023-05-14T21:14:00.905Z,5.65
2023-05-14T21:16:46.501Z,5.25
2023-05-14T21:19:31.813Z,5.47
2023-05-14T21:22:17.130Z,6.40
2023-05-14T21:25:02.535Z,6.63
2023-05-14T21:27:48.113Z,6.05
2023-05-14T21:30:33.405Z,6.28
2023-05-14T21:33:19.467Z,6.68
2023-05-14T21:36:05.077Z,6.47
2023-05-14T21:38:50.225Z,9.70
2023-05-14T21:41:35.592Z,5.50
2023-05-14T21:44:21.817Z,6.00
2023-05-14T21:47:07.700Z,5.57
2023-05-14T21:49:53.059Z,7.25
2023-05-14T21:52:38.575Z,4.53
2023-05-14T21:55:24.223Z,4.88
2023-05-14T21:58:09.963Z,6.20
2023-05-14T22:00:55.162Z,5.72
2023-05-14T22:03:40.719Z,6.68
2023-05-14T22:06:26.374Z,4.53
2023-05-14T22:09:11.887Z,5.40
2023-05-14T22:11:58.291Z,5.90
2023-05-14T22:14:43.640Z,4.90
2023-05-14T22:17:29.083Z,4.10
2023-05-14T22:20:14.413Z,4.88
2023-05-14T22:22:59.821Z,7.50
2023-05-14T22:25:45.039Z,4.20
2023-05-14T22:28:30.417Z,5.28
2023-05-14T22:31:16.008Z,3.97
2023-05-14T22:34:01.259Z,4.32
2023-05-14T22:36:46.552Z,4.13
2023-05-14T22:39:31.954Z,5.05
2023-05-14T22:42:17.297Z,4.30
2023-05-14T22:45:02.915Z,4.82
2023-05-14T22:47:48.086Z,5.53
2023-05-14T22:50:33.574Z,4.60
2023-05-14T22:53:18.742Z,4.20
2023-05-14T22:56:04.665Z,4.50
2023-05-14T22:58:49.710Z,3.97
2023-05-14T23:01:35.105Z,7.63
2023-05-14T23:04:20.987Z,7.10
2023-05-14T23:07:05.935Z,4.88
2023-05-14T23:09:51.439Z,4.75
2023-05-14T23:12:36.694Z,5.57
2023-05-14T23:15:22.021Z,6.28
2023-05-14T23:18:08.230Z,5.15
2023-05-14T23:20:53.369Z,4.25
2023-05-14T23:23:38.810Z,4.30
2023-05-14T23:26:24.220Z,4.90
2023-05-14T23:29:09.672Z,6.13
2023-05-14T23:31:55.192Z,5.32
2023-05-14T23:34:40.601Z,6.03
2023-05-14T23:37:26.005Z,6.78
2023-05-14T23:40:11.618Z,8.38
2023-05-14T23:42:59.565Z,7.68
2023-05-14T23:45:45.039Z,6.70
2023-05-14T23:48:30.780Z,6.63
2023-05-14T23:51:15.876Z,5.53
2023-05-14T23:54:01.224Z,5.20
2023-05-14T23:56:46.832Z,5.65
2023-05-14T23:59:32.387Z,8.18
